Time;durP1;ratioP1;P1;durP2;ratioP2;P2;SDS_P1;SDS_P2;PMS_P1;PMS_P2;Temp;Humidity;BMP_temperature;BMP_pressure;BME280_temperature;BME280_humidity;BME280_pressure;Samples;Min_cycle;Max_cycle;Signal;HPM_P1;HPM_P2
2022/09/22 00:02:01;;;;;;;7.60;4.18;;;;;;;7.80;67.01;99819.31;5174099;28;20053;-82
2022/09/22 00:04:51;;;;;;;10.70;5.40;;;;;;;8.04;67.78;99835.25;5188895;28;20053;-83
2022/09/22 00:07:41;;;;;;;7.55;4.72;;;;;;;8.10;67.39;99834.81;5189076;28;20053;-82
2022/09/22 00:10:31;;;;;;;7.13;4.70;;;;;;;8.13;67.19;99842.53;5194404;28;20088;-81
2022/09/22 00:13:21;;;;;;;8.88;4.22;;;;;;;7.87;66.72;99842.53;5202304;28;20184;-82
2022/09/22 00:16:13;;;;;;;12.63;4.88;;;;;;;7.89;66.62;99835.38;5187495;28;20088;-83
2022/09/22 00:19:08;;;;;;;8.98;4.70;;;;;;;7.91;67.11;99833.47;5188949;28;20052;-82
2022/09/22 00:21:58;;;;;;;8.10;4.15;;;;;;;7.87;67.04;99834.59;5174072;28;20081;-80
2022/09/22 00:24:48;;;;;;;8.43;4.93;;;;;;;7.69;67.18;99834.09;5188387;28;20147;-80
2022/09/22 00:27:38;;;;;;;7.75;5.00;;;;;;;7.63;67.31;99828.38;5184288;28;20191;-80
2022/09/22 00:30:30;;;;;;;7.78;4.57;;;;;;;7.68;67.70;99836.81;5184627;28;20199;-81
2022/09/22 00:33:20;;;;;;;8.25;4.40;;;;;;;7.54;67.19;99825.41;5184145;28;20523;-80
2022/09/22 00:36:10;;;;;;;7.57;4.45;;;;;;;7.36;66.22;99799.44;5172464;28;20183;-81
2022/09/22 00:39:00;;;;;;;6.53;4.18;;;;;;;7.51;66.83;99832.69;5186373;28;20053;-81
2022/09/22 00:41:51;;;;;;;10.77;5.05;;;;;;;7.38;67.17;99818.63;5185665;28;20056;-80
2022/09/22 00:44:43;;;;;;;9.93;5.38;;;;;;;7.39;67.18;99797.44;5187956;28;20050;-81
2022/09/22 00:47:41;;;;;;;7.57;5.28;;;;;;;7.82;67.75;99827.97;5187321;28;20050;-81
2022/09/22 00:50:31;;;;;;;8.70;4.88;;;;;;;7.59;67.14;99826.91;5187025;28;20052;-81
2022/09/22 00:53:24;;;;;;;10.20;5.05;;;;;;;7.30;68.04;99814.72;5172121;28;20046;-81
2022/09/22 00:56:20;;;;;;;9.48;4.60;;;;;;;7.34;67.58;99814.53;5169002;28;20730;-81
2022/09/22 00:59:14;;;;;;;8.05;4.78;;;;;;;7.51;67.76;99832.69;5187893;28;20080;-81
2022/09/22 01:02:05;;;;;;;9.45;4.95;;;;;;;7.47;67.64;99834.69;5185711;28;20064;-81
2022/09/22 01:04:56;;;;;;;11.13;5.25;;;;;;;7.25;67.90;99813.34;5186814;28;20084;-81
2022/09/22 01:07:47;;;;;;;7.35;5.00;;;;;;;7.40;67.90;99824.66;5173999;28;20131;-81
2022/09/22 01:10:38;;;;;;;8.85;4.57;;;;;;;7.28;67.66;99834.22;5189370;28;20058;-80
2022/09/22 01:13:42;;;;;;;7.55;4.65;;;;;;;7.24;67.14;99833.59;5184739;28;20102;-81
2022/09/22 01:17:03;;;;;;;8.52;4.95;;;;;;;7.13;67.55;99836.13;5185191;28;20050;-80
2022/09/22 01:20:14;;;;;;;6.00;4.22;;;;;;;6.93;68.56;99824.22;5199417;28;20084;-81
2022/09/22 01:23:43;;;;;;;8.43;4.43;;;;;;;7.09;68.01;99831.16;5201122;28;20515;-81
2022/09/22 01:27:10;;;;;;;7.50;4.80;;;;;;;6.96;67.98;99823.19;5170983;28;20590;-81
2022/09/22 01:30:17;;;;;;;6.15;4.05;;;;;;;7.09;67.70;99824.09;5185947;28;20089;-81
2022/09/22 01:33:26;;;;;;;7.95;4.85;;;;;;;7.34;68.01;99823.28;5167785;28;20086;-81
2022/09/22 01:36:28;;;;;;;8.00;4.70;;;;;;;7.20;67.82;99826.84;5183696;28;20112;-81
2022/09/22 01:39:25;;;;;;;9.05;4.50;;;;;;;7.25;67.81;99826.53;5187485;28;20069;-81
2022/09/22 01:42:30;;;;;;;8.93;4.68;;;;;;;7.49;66.44;99824.91;5210622;28;20054;-81
2022/09/22 01:45:25;;;;;;;7.25;4.55;;;;;;;7.36;66.50;99829.31;5187072;28;20272;-81
2022/09/22 01:48:25;;;;;;;7.45;4.82;;;;;;;7.18;66.84;99822.59;5186744;28;20630;-81
2022/09/22 01:51:29;;;;;;;7.93;4.82;;;;;;;7.08;67.70;99822.38;5185341;28;20649;-81
2022/09/22 01:54:40;;;;;;;10.15;5.28;;;;;;;6.98;66.62;99816.84;5186339;28;20137;-81
2022/09/22 01:58:04;;;;;;;10.40;5.07;;;;;;;6.66;68.05;99826.03;5173297;28;20073;-81
2022/09/22 02:00:59;;;;;;;8.40;5.20;;;;;;;6.51;68.51;99791.81;5180748;28;20077;-81
2022/09/22 02:04:30;;;;;;;11.88;5.65;;;;;;;6.67;67.08;99819.81;5169971;28;20050;-81
2022/09/22 02:07:37;;;;;;;10.27;5.05;;;;;;;6.69;67.75;99817.91;5172009;28;20057;-81
2022/09/22 02:10:34;;;;;;;9.63;4.65;;;;;;;6.72;68.25;99815.06;5191135;28;20060;-81
2022/09/22 02:13:24;;;;;;;10.18;5.25;;;;;;;6.77;68.38;99813.84;5191254;28;20048;-81
2022/09/22 02:16:18;;;;;;;13.27;6.00;;;;;;;6.83;67.95;99802.06;5190947;28;20061;-81
2022/09/22 02:19:15;;;;;;;10.70;5.45;;;;;;;6.89;68.37;99817.47;5175453;28;20067;-81
2022/09/22 02:22:09;;;;;;;11.20;5.43;;;;;;;6.41;69.58;99800.41;5187194;28;20162;-81
2022/09/22 02:24:59;;;;;;;14.35;6.20;;;;;;;6.56;68.95;99791.53;5188159;28;20054;-81
2022/09/22 02:27:53;;;;;;;9.75;5.40;;;;;;;6.70;69.06;99809.06;5203338;28;20064;-81
2022/09/22 02:30:48;;;;;;;11.95;5.53;;;;;;;6.83;68.14;99802.06;5189679;28;20052;-81
2022/09/22 02:33:59;;;;;;;9.50;5.38;;;;;;;6.77;67.88;99786.63;5188594;28;20065;-81
2022/09/22 02:37:15;;;;;;;9.05;5.38;;;;;;;6.72;67.63;99791.34;5176218;28;20064;-82
2022/09/22 02:40:33;;;;;;;10.02;5.63;;;;;;;7.02;67.32;99802.53;5189329;28;20519;-82
2022/09/22 02:43:33;;;;;;;8.00;4.35;;;;;;;6.57;67.07;99778.22;5189808;28;20053;-81
2022/09/22 02:46:44;;;;;;;8.25;5.13;;;;;;;6.46;67.08;99788.63;5222243;28;20515;-82
2022/09/22 02:49:40;;;;;;;7.43;4.38;;;;;;;6.56;68.20;99805.53;5187472;28;20068;-81
2022/09/22 02:52:30;;;;;;;8.02;5.05;;;;;;;6.53;67.19;99789.09;5178462;28;20100;-82
2022/09/22 02:55:21;;;;;;;8.07;4.88;;;;;;;6.60;67.51;99790.38;5188045;28;20084;-81
2022/09/22 02:58:14;;;;;;;7.88;4.65;;;;;;;6.56;67.09;99786.25;5187943;28;20120;-81
2022/09/22 03:01:04;;;;;;;8.95;5.10;;;;;;;6.26;67.73;99791.69;5188100;28;20512;-81
2022/09/22 03:03:54;;;;;;;8.63;4.82;;;;;;;6.41;67.81;99795.97;5188411;28;20061;-81
2022/09/22 03:06:44;;;;;;;7.88;4.82;;;;;;;6.11;68.31;99761.88;5167578;28;20064;-81
2022/09/22 03:09:34;;;;;;;8.20;5.60;;;;;;;6.40;68.40;99788.19;5175748;28;20057;-81
2022/09/22 03:12:25;;;;;;;9.23;4.97;;;;;;;6.45;68.57;99808.00;5182264;28;20057;-81
2022/09/22 03:15:15;;;;;;;8.85;5.22;;;;;;;6.55;68.03;99803.81;5186541;28;20058;-82
2022/09/22 03:18:05;;;;;;;7.47;5.28;;;;;;;6.50;68.07;99787.47;5173248;28;20052;-82
2022/09/22 03:20:55;;;;;;;23.90;5.47;;;;;;;6.51;68.04;99786.53;5188632;28;20141;-82
2022/09/22 03:23:45;;;;;;;10.20;5.40;;;;;;;6.42;68.42;99786.28;5173325;28;20433;-81
2022/09/22 03:26:35;;;;;;;9.40;5.75;;;;;;;6.29;68.40;99789.72;5174125;28;20634;-81
2022/09/22 03:29:25;;;;;;;8.27;5.07;;;;;;;6.24;69.00;99783.03;5159192;28;20060;-81
2022/09/22 03:32:15;;;;;;;7.88;5.03;;;;;;;6.19;68.68;99785.09;5176159;28;20073;-81
2022/09/22 03:35:06;;;;;;;7.05;4.90;;;;;;;6.07;69.36;99782.31;5185830;28;20188;-81
2022/09/22 03:37:56;;;;;;;6.95;5.07;;;;;;;6.19;69.08;99791.25;5169290;28;20057;-81
2022/09/22 03:40:51;;;;;;;10.30;5.68;;;;;;;6.16;68.40;99775.63;5186292;28;20119;-82
2022/09/22 03:43:41;;;;;;;7.60;5.25;;;;;;;6.12;69.13;99779.38;5171664;28;20132;-81
2022/09/22 03:46:31;;;;;;;11.25;6.07;;;;;;;6.10;67.75;99771.59;5184587;28;20046;-81
2022/09/22 03:49:23;;;;;;;8.95;5.20;;;;;;;6.02;69.05;99773.00;5169880;28;20054;-81
2022/09/22 03:52:13;;;;;;;9.98;5.13;;;;;;;5.75;70.08;99767.63;5169307;28;20053;-81
2022/09/22 03:55:03;;;;;;;8.45;5.55;;;;;;;5.78;68.79;99775.34;5183062;28;20054;-81
2022/09/22 03:57:54;;;;;;;11.27;4.85;;;;;;;5.96;68.77;99757.56;5183242;28;20085;-81
2022/09/22 04:00:45;;;;;;;7.00;4.75;;;;;;;6.01;67.29;99772.16;5182498;28;20420;-81
2022/09/22 04:03:35;;;;;;;9.57;5.55;;;;;;;5.77;69.06;99774.50;5184636;28;20085;-81
2022/09/22 04:06:25;;;;;;;8.30;5.10;;;;;;;5.68;68.98;99780.31;5168061;28;20072;-81
2022/09/22 04:09:17;;;;;;;11.68;6.47;;;;;;;5.82;68.72;99766.31;5184831;28;20046;-81
2022/09/22 04:12:07;;;;;;;10.77;5.40;;;;;;;5.92;68.47;99772.69;5180264;28;20053;-81
2022/09/22 04:14:58;;;;;;;10.00;6.07;;;;;;;5.87;68.16;99770.34;5190653;28;20200;-81
2022/09/22 04:17:48;;;;;;;9.45;5.70;;;;;;;6.13;67.80;99774.97;5190349;28;20060;-82
2022/09/22 04:20:39;;;;;;;12.43;5.88;;;;;;;6.09;66.72;99777.81;5176799;28;20056;-81
2022/09/22 04:23:32;;;;;;;11.52;5.43;;;;;;;5.96;67.34;99763.72;5188625;28;20052;-82
2022/09/22 04:26:22;;;;;;;7.95;5.38;;;;;;;5.86;67.37;99759.91;5176465;28;20073;-80
2022/09/22 04:29:12;;;;;;;8.18;4.75;;;;;;;5.97;68.26;99782.97;5176186;28;20432;-81
2022/09/22 04:32:02;;;;;;;7.88;5.15;;;;;;;6.01;67.68;99779.22;5171448;28;20061;-81
2022/09/22 04:34:53;;;;;;;8.00;5.03;;;;;;;5.90;67.08;99761.44;5186442;28;20049;-81
2022/09/22 04:37:43;;;;;;;8.18;4.90;;;;;;;5.87;67.58;99766.88;5186236;28;20053;-82
2022/09/22 04:40:34;;;;;;;10.85;5.25;;;;;;;5.95;68.08;99784.84;5185978;28;20119;-82
2022/09/22 04:43:24;;;;;;;8.27;5.38;;;;;;;5.84;67.40;99772.31;5170917;28;20131;-81
2022/09/22 04:46:14;;;;;;;10.98;5.57;;;;;;;5.85;67.78;99782.75;5185446;28;22219;-82
2022/09/22 04:49:04;;;;;;;13.35;5.30;;;;;;;5.76;68.06;99779.84;5175718;28;20056;-82
2022/09/22 04:51:54;;;;;;;6.05;4.65;;;;;;;5.46;68.39;99774.66;5170600;28;20072;-81
2022/09/22 04:54:45;;;;;;;8.82;5.00;;;;;;;5.17;68.66;99770.19;5184668;28;20261;-81
2022/09/22 04:57:34;;;;;;;9.13;4.72;;;;;;;5.25;68.58;99758.38;5156998;28;20704;-81
2022/09/22 05:00:27;;;;;;;12.85;5.38;;;;;;;5.71;68.35;99789.81;5213259;23;20143;-67
2022/09/22 05:03:17;;;;;;;8.85;4.63;;;;;;;5.72;67.75;99791.50;5180231;28;20426;-69
2022/09/22 05:06:11;;;;;;;9.48;5.13;;;;;;;5.70;68.04;99788.97;5195805;28;20057;-68
2022/09/22 05:09:02;;;;;;;9.43;5.35;;;;;;;5.71;68.44;99785.38;5201662;28;20634;-69
2022/09/22 05:11:53;;;;;;;10.15;5.70;;;;;;;5.77;68.64;99792.06;5187444;28;20041;-70
2022/09/22 05:14:43;;;;;;;10.25;5.10;;;;;;;5.77;67.95;99776.28;5217996;28;20103;-68
2022/09/22 05:17:35;;;;;;;9.23;5.50;;;;;;;5.86;68.32;99796.75;5214581;28;20069;-68
2022/09/22 05:20:25;;;;;;;17.50;6.60;;;;;;;5.54;69.63;99790.84;5209434;28;20059;-68
2022/09/22 05:23:16;;;;;;;14.77;6.43;;;;;;;5.74;69.11;99797.53;5204754;28;20047;-68
2022/09/22 05:26:07;;;;;;;13.55;6.45;;;;;;;5.64;69.96;99803.34;5204525;28;20167;-68
2022/09/22 05:28:57;;;;;;;17.77;6.25;;;;;;;5.69;70.35;99804.84;5203268;28;20128;-68
2022/09/22 05:31:46;;;;;;;10.68;6.30;;;;;;;5.87;69.95;99809.00;5201402;28;20052;-68
2022/09/22 05:34:37;;;;;;;11.45;6.00;;;;;;;6.01;69.39;99808.16;5206692;28;20064;-68
2022/09/22 05:37:26;;;;;;;11.52;5.88;;;;;;;5.67;69.13;99809.38;5222363;28;20719;-70
2022/09/22 05:40:17;;;;;;;10.52;6.50;;;;;;;5.67;69.77;99807.56;5213881;28;20059;-68
2022/09/22 05:43:08;;;;;;;13.00;5.68;;;;;;;5.61;69.49;99803.50;5216643;28;20488;-69
2022/09/22 05:45:58;;;;;;;7.75;5.22;;;;;;;5.66;69.14;99813.75;5209890;28;20776;-69
2022/09/22 05:48:48;;;;;;;8.55;5.50;;;;;;;5.66;69.24;99808.50;5211068;28;20060;-72
2022/09/22 05:51:38;;;;;;;11.10;5.85;;;;;;;5.72;69.64;99813.38;5182663;28;20457;-69
2022/09/22 05:54:28;;;;;;;8.68;5.63;;;;;;;5.77;69.66;99815.75;5207971;28;20056;-69
2022/09/22 05:57:24;;;;;;;8.63;5.50;;;;;;;5.80;69.45;99812.94;5193633;28;20060;-70
2022/09/22 06:00:14;;;;;;;10.23;5.60;;;;;;;5.91;69.44;99813.13;5186424;28;20463;-70
2022/09/22 06:03:04;;;;;;;12.18;5.38;;;;;;;5.91;69.34;99809.66;5186745;28;20131;-69
2022/09/22 06:05:54;;;;;;;8.60;5.22;;;;;;;6.03;69.65;99811.56;5178794;28;20072;-69
2022/09/22 06:08:44;;;;;;;8.50;5.85;;;;;;;6.07;69.32;99813.91;5184823;28;20068;-68
2022/09/22 06:11:38;;;;;;;15.07;7.05;;;;;;;6.17;70.76;99815.97;5183360;28;20121;-69
2022/09/22 06:14:28;;;;;;;18.50;7.07;;;;;;;6.34;71.00;99818.38;5196131;28;20607;-69
2022/09/22 06:17:18;;;;;;;43.80;8.48;;;;;;;6.30;71.56;99815.09;5200261;28;20110;-69
2022/09/22 06:20:08;;;;;;;26.63;7.43;;;;;;;6.27;71.38;99803.91;5198866;28;20049;-69
2022/09/22 06:22:58;;;;;;;18.75;7.45;;;;;;;6.45;71.15;99822.97;5191014;28;20167;-69
2022/09/22 06:25:54;;;;;;;16.02;6.80;;;;;;;6.51;71.47;99819.94;5189081;28;20057;-73
2022/09/22 06:28:45;;;;;;;18.50;7.05;;;;;;;6.62;71.36;99811.34;5186816;28;20056;-69
2022/09/22 06:31:36;;;;;;;10.52;6.32;;;;;;;6.81;71.75;99804.78;5185669;28;20057;-70
2022/09/22 06:34:27;;;;;;;12.85;7.30;;;;;;;6.88;71.50;99805.22;5183654;28;20160;-68
2022/09/22 06:37:19;;;;;;;16.27;7.78;;;;;;;7.11;72.02;99798.44;5185167;28;21072;-69
2022/09/22 06:40:09;;;;;;;13.23;8.25;;;;;;;7.23;71.41;99809.97;5187172;28;21413;-69
2022/09/22 06:43:13;;;;;;;19.90;8.65;;;;;;;7.25;70.70;99805.41;5191568;28;20056;-70
2022/09/22 06:46:04;;;;;;;14.73;9.18;;;;;;;7.38;70.95;99806.28;5194751;28;20056;-69
2022/09/22 06:48:56;;;;;;;17.27;8.80;;;;;;;7.47;70.86;99813.59;5192636;28;20173;-68
2022/09/22 06:51:48;;;;;;;17.40;9.25;;;;;;;7.60;70.75;99818.88;5185449;28;20433;-69
2022/09/22 06:54:40;;;;;;;19.45;8.93;;;;;;;8.03;70.15;99812.44;5186851;28;20190;-69
2022/09/22 06:57:31;;;;;;;23.08;9.00;;;;;;;7.95;70.69;99812.97;5193034;28;20398;-68
2022/09/22 07:00:22;;;;;;;24.05;8.93;;;;;;;8.11;71.33;99805.66;5183891;28;20120;-69
2022/09/22 07:03:21;;;;;;;23.35;10.00;;;;;;;8.07;73.21;99800.69;5190617;28;20059;-69
2022/09/22 07:06:16;;;;;;;20.25;8.93;;;;;;;8.42;71.73;99801.69;5192969;28;20107;-69
2022/09/22 07:09:11;;;;;;;20.40;9.40;;;;;;;8.85;69.58;99809.16;5190627;28;20142;-69
2022/09/22 07:12:01;;;;;;;19.35;9.63;;;;;;;9.16;69.66;99807.72;5195507;28;20427;-69
2022/09/22 07:14:52;;;;;;;17.90;9.20;;;;;;;9.14;70.16;99792.94;5201446;28;20064;-71
2022/09/22 07:17:42;;;;;;;20.15;9.30;;;;;;;10.28;66.81;99793.81;5202152;28;20089;-70
2022/09/22 07:20:34;;;;;;;14.88;8.65;;;;;;;11.27;64.03;99803.38;5205836;28;20045;-68
2022/09/22 07:23:25;;;;;;;14.98;8.30;;;;;;;12.41;61.36;99801.59;5198368;28;20450;-69
2022/09/22 07:26:18;;;;;;;13.23;7.18;;;;;;;13.43;58.02;99801.31;5190771;28;20080;-71
2022/09/22 07:29:15;;;;;;;12.23;6.22;;;;;;;14.15;55.43;99799.84;5193770;28;20076;-69
2022/09/22 07:32:05;;;;;;;12.13;5.88;;;;;;;14.37;53.09;99795.94;5195549;28;20114;-69
2022/09/22 07:34:56;;;;;;;10.68;5.35;;;;;;;15.32;51.78;99790.09;5193458;28;20744;-70
2022/09/22 07:37:46;;;;;;;7.82;4.85;;;;;;;15.20;51.13;99783.31;5190973;28;20073;-69
2022/09/22 07:40:37;;;;;;;7.50;5.10;;;;;;;15.77;50.72;99777.56;5183856;28;20072;-71
2022/09/22 07:43:27;;;;;;;7.95;4.82;;;;;;;14.77;50.96;99751.06;5192204;28;20061;-70
2022/09/22 07:46:18;;;;;;;7.13;4.90;;;;;;;16.00;49.89;99784.06;5192229;28;20729;-70
2022/09/22 07:49:09;;;;;;;9.90;4.85;;;;;;;15.43;51.90;99792.53;5195020;28;20065;-71
2022/09/22 07:51:59;;;;;;;10.43;5.07;;;;;;;16.52;50.08;99789.25;5199487;28;20061;-72
2022/09/22 07:54:49;;;;;;;9.13;5.22;;;;;;;14.97;51.36;99782.94;5207187;28;20292;-69
2022/09/22 07:57:40;;;;;;;9.93;5.60;;;;;;;16.35;48.56;99792.91;5191069;28;20207;-70
2022/09/22 08:00:35;;;;;;;12.82;5.43;;;;;;;15.27;50.97;99785.22;5185862;28;20052;-70
2022/09/22 08:03:25;;;;;;;10.30;5.50;;;;;;;16.73;47.41;99777.28;5188803;28;20103;-71
2022/09/22 08:06:18;;;;;;;12.77;5.32;;;;;;;17.30;46.33;99780.88;5188555;28;20068;-70
2022/09/22 08:09:09;;;;;;;9.32;5.80;;;;;;;16.96;49.58;99774.84;5188731;28;20178;-71
2022/09/22 08:11:59;;;;;;;26.90;6.32;;;;;;;17.82;46.18;99777.00;5195018;28;20178;-73
2022/09/22 08:14:50;;;;;;;10.02;5.68;;;;;;;18.19;44.91;99764.81;5199550;28;20064;-70
2022/09/22 08:17:40;;;;;;;9.93;6.13;;;;;;;18.76;45.12;99775.28;5203722;28;20069;-69
2022/09/22 08:20:30;;;;;;;10.25;6.88;;;;;;;18.82;43.85;99763.81;5197075;28;20187;-72
2022/09/22 08:23:20;;;;;;;10.60;6.82;;;;;;;18.61;43.69;99768.94;5200338;28;20044;-71
2022/09/22 08:26:10;;;;;;;14.35;6.90;;;;;;;19.06;42.55;99741.31;5197248;28;20148;-71
2022/09/22 08:29:01;;;;;;;12.50;6.80;;;;;;;18.30;45.24;99759.03;5200822;28;20057;-69
2022/09/22 08:31:52;;;;;;;7.93;5.50;;;;;;;19.07;43.62;99764.47;5188331;28;20446;-70
2022/09/22 08:34:44;;;;;;;6.57;5.30;;;;;;;19.40;42.33;99767.75;5190119;28;20446;-70
2022/09/22 08:37:35;;;;;;;10.65;5.35;;;;;;;18.77;44.46;99760.81;5188953;28;20049;-70
2022/09/22 08:40:26;;;;;;;15.18;5.03;;;;;;;16.67;48.57;99754.69;5189761;28;20057;-71
2022/09/22 08:43:16;;;;;;;6.10;4.50;;;;;;;17.60;46.50;99763.25;5185167;28;20099;-72
2022/09/22 08:46:06;;;;;;;9.43;4.22;;;;;;;19.10;42.68;99756.03;5204327;28;20442;-72
2022/09/22 08:52:41;;;;;;;8.73;4.30;;;;;;;19.21;42.71;99744.88;5196882;28;20166;-71
2022/09/22 08:55:32;;;;;;;11.23;3.75;;;;;;;20.10;42.83;99758.47;5205302;28;20053;-70
2022/09/22 08:58:36;;;;;;;7.15;3.08;;;;;;;20.03;40.06;99752.13;5202861;28;20068;-70
2022/09/22 09:01:42;;;;;;;7.85;3.63;;;;;;;20.48;41.82;99749.38;5194840;28;20786;-70
2022/09/22 09:04:53;;;;;;;11.90;3.53;;;;;;;20.14;44.27;99748.16;5194739;28;21553;-70
2022/09/22 09:08:04;;;;;;;24.08;3.80;;;;;;;19.85;42.35;99751.69;5196719;28;20626;-70
2022/09/22 09:11:33;;;;;;;6.45;3.22;;;;;;;20.09;40.55;99751.38;5193326;28;20053;-72
2022/09/22 09:14:52;;;;;;;11.32;3.13;;;;;;;21.13;40.83;99743.06;5196448;28;20076;-69
2022/09/22 09:17:46;;;;;;;9.23;3.25;;;;;;;21.07;40.06;99747.34;5195897;28;20092;-71
2022/09/22 09:20:58;;;;;;;14.27;3.15;;;;;;;21.13;40.43;99747.63;5191123;28;20427;-70
2022/09/22 09:23:52;;;;;;;5.63;3.03;;;;;;;21.85;37.96;99736.53;5197309;28;20060;-71
2022/09/22 09:27:10;;;;;;;4.53;2.60;;;;;;;22.47;36.78;99732.06;5194931;28;20131;-68
2022/09/22 09:30:16;;;;;;;7.75;3.15;;;;;;;22.78;36.79;99738.81;5190686;28;20067;-70
2022/09/22 09:33:25;;;;;;;2.80;2.20;;;;;;;22.75;36.35;99740.91;5188414;28;20515;-70
2022/09/22 09:36:21;;;;;;;3.45;1.90;;;;;;;22.57;35.85;99731.69;5191221;28;20527;-70
2022/09/22 09:39:29;;;;;;;3.58;1.88;;;;;;;22.50;37.12;99728.97;5190345;28;20141;-69
2022/09/22 09:42:33;;;;;;;2.67;1.88;;;;;;;22.56;38.47;99732.72;5189748;28;20060;-69
2022/09/22 09:45:33;;;;;;;2.88;2.15;;;;;;;22.15;36.64;99720.06;5196465;28;20057;-69
2022/09/22 09:48:58;;;;;;;2.25;1.73;;;;;;;23.02;37.21;99727.44;5199629;28;20045;-69
2022/09/22 09:51:55;;;;;;;3.60;1.85;;;;;;;23.18;35.27;99732.44;5199093;28;20061;-69
2022/09/22 09:54:46;;;;;;;1.70;1.33;;;;;;;23.00;34.79;99723.28;5198648;28;20065;-68
2022/09/22 10:00:29;;;;;;;1.67;1.30;;;;;;;22.95;34.92;99727.44;5186081;28;20525;-68
2022/09/22 10:01:21;;;;;;;;;;;;;;;22.59;35.20;99721.53;5193676;28;20135;-69
2022/09/22 10:04:36;;;;;;;1.55;1.00;;;;;;;23.05;34.77;99715.38;5193212;28;20382;-68
2022/09/22 10:07:29;;;;;;;3.00;1.00;;;;;;;23.03;33.69;99702.06;5199149;28;20274;-68
2022/09/22 10:10:28;;;;;;;4.95;0.80;;;;;;;22.92;32.62;99705.34;5195085;28;20422;-69
2022/09/22 10:13:28;;;;;;;1.77;0.90;;;;;;;22.45;34.54;99709.81;5186115;28;20120;-68
2022/09/22 10:16:24;;;;;;;2.22;0.90;;;;;;;22.64;33.24;99695.53;5189818;28;20065;-68
2022/09/22 10:19:21;;;;;;;3.88;1.15;;;;;;;22.59;36.44;99699.91;5186260;28;20060;-68
2022/09/22 10:22:21;;;;;;;1.23;1.00;;;;;;;22.95;36.07;99702.28;5195341;28;20080;-68
2022/09/22 10:25:23;;;;;;;3.95;1.42;;;;;;;22.39;35.41;99706.06;5185155;28;20076;-68
2022/09/22 10:28:15;;;;;;;1.63;1.23;;;;;;;22.49;35.32;99703.81;5192102;28;20502;-69
2022/09/22 10:31:16;;;;;;;1.67;1.50;;;;;;;22.62;33.85;99694.09;5191607;28;20065;-68
2022/09/22 10:34:55;;;;;;;4.68;1.48;;;;;;;22.73;35.65;99697.00;5200954;28;20050;-68
2022/09/22 10:37:47;;;;;;;1.95;1.27;;;;;;;22.47;34.88;99675.31;5176738;28;20188;-68
2022/09/22 10:40:40;;;;;;;1.30;1.10;;;;;;;22.66;37.10;99685.34;5196336;28;20049;-69
2022/09/22 10:44:14;;;;;;;1.65;1.25;;;;;;;22.27;34.91;99681.50;5193024;28;20676;-70
2022/09/22 10:48:02;;;;;;;6.63;1.50;;;;;;;21.60;37.40;99678.69;5199429;28;20522;-68
2022/09/22 10:51:11;;;;;;;2.13;1.13;;;;;;;22.05;37.29;99672.69;5185878;28;21405;-72
2022/09/22 10:54:20;;;;;;;5.35;1.15;;;;;;;21.32;35.80;99666.00;5196420;28;20046;-70
2022/09/22 10:57:53;;;;;;;0.95;0.93;;;;;;;21.35;35.72;99665.63;5199253;28;20052;-69
2022/09/22 11:00:44;;;;;;;1.95;1.25;;;;;;;20.93;38.06;99672.78;5174042;28;20077;-68
2022/09/22 11:03:53;;;;;;;1.67;1.15;;;;;;;21.15;36.88;99675.44;5213744;28;20689;-68
2022/09/22 11:14:02;;;;;;;3.72;1.13;;;;;;;21.81;35.09;99662.38;5201355;28;20051;-71
2022/09/22 11:17:24;;;;;;;2.25;0.90;;;;;;;21.79;35.71;99665.28;5193027;28;20053;-69
2022/09/22 11:20:52;;;;;;;3.47;0.90;;;;;;;21.76;36.06;99656.78;5206723;28;20167;-69
2022/09/22 11:24:20;;;;;;;2.30;1.05;;;;;;;20.94;36.40;99644.78;5186161;28;20402;-69
2022/09/22 11:27:57;;;;;;;1.30;1.20;;;;;;;21.17;36.73;99649.09;5194308;28;20053;-71
2022/09/22 11:30:52;;;;;;;3.00;1.17;;;;;;;21.39;35.64;99653.44;5177034;28;20057;-69
2022/09/22 11:34:17;;;;;;;2.13;0.93;;;;;;;21.07;36.58;99639.50;5211470;28;20053;-68
2022/09/22 11:37:28;;;;;;;2.67;0.95;;;;;;;21.18;37.12;99631.88;5196127;28;20676;-68
2022/09/22 11:40:31;;;;;;;1.90;1.42;;;;;;;21.26;37.42;99629.88;5202558;28;20596;-69
2022/09/22 11:43:34;;;;;;;2.78;1.45;;;;;;;21.15;35.63;99630.41;5190172;28;20581;-69
2022/09/22 11:46:59;;;;;;;1.48;0.98;;;;;;;20.65;37.58;99626.91;5186432;28;20059;-69
2022/09/22 11:50:34;;;;;;;3.38;1.20;;;;;;;20.17;37.64;99624.75;5183733;28;20060;-69
2022/09/22 11:54:06;;;;;;;3.28;1.20;;;;;;;20.25;36.70;99613.03;5194637;28;20053;-69
2022/09/22 11:57:05;;;;;;;2.47;1.10;;;;;;;20.67;38.38;99613.25;5124484;28;20193;-69
2022/09/22 12:00:01;;;;;;;4.72;1.20;;;;;;;20.85;38.98;99610.91;5128578;28;20050;-69
2022/09/22 12:03:18;;;;;;;2.40;0.93;;;;;;;21.01;36.86;99613.31;5186811;28;20511;-69
2022/09/22 12:06:23;;;;;;;2.90;1.23;;;;;;;20.96;36.48;99607.69;5189603;28;20050;-68
2022/09/22 12:09:30;;;;;;;1.40;0.95;;;;;;;21.02;37.48;99609.56;5190458;28;20098;-69
2022/09/22 12:12:28;;;;;;;2.35;0.90;;;;;;;20.59;37.67;99608.81;5189277;28;20091;-68
2022/09/22 12:15:25;;;;;;;1.55;0.93;;;;;;;20.62;37.58;99603.88;5186880;28;20096;-69
2022/09/22 12:18:25;;;;;;;1.25;0.88;;;;;;;20.76;38.12;99606.69;5193286;28;20175;-69
2022/09/22 12:21:30;;;;;;;1.30;0.95;;;;;;;20.89;38.23;99593.31;5184936;28;20533;-69
2022/09/22 12:24:20;;;;;;;1.10;1.00;;;;;;;20.54;36.87;99593.25;5188694;28;20111;-68
2022/09/22 12:27:22;;;;;;;1.40;0.80;;;;;;;20.36;36.64;99590.97;5194388;28;20186;-69
2022/09/22 12:30:21;;;;;;;1.73;1.27;;;;;;;20.23;36.60;99581.91;5192543;28;20104;-69
2022/09/22 12:33:14;;;;;;;3.13;1.45;;;;;;;20.35;35.36;99577.69;5181489;28;20064;-68
2022/09/22 12:36:05;;;;;;;2.35;0.90;;;;;;;20.42;37.24;99565.94;5195790;28;20061;-69
2022/09/22 12:39:08;;;;;;;6.95;1.20;;;;;;;20.51;36.90;99573.94;5191543;28;20443;-70
2022/09/22 12:42:01;;;;;;;2.53;0.80;;;;;;;20.64;37.99;99571.34;5190290;28;20463;-69
2022/09/22 12:45:15;;;;;;;1.40;1.02;;;;;;;20.10;36.28;99567.31;5196475;28;20157;-68
2022/09/22 12:48:12;;;;;;;4.68;1.10;;;;;;;19.84;36.58;99557.09;5186429;28;20159;-68
2022/09/22 12:51:24;;;;;;;1.80;0.90;;;;;;;20.33;38.15;99569.81;5196192;28;20049;-68
2022/09/22 12:54:25;;;;;;;2.58;0.90;;;;;;;20.31;37.15;99565.66;5189236;28;20107;-68
2022/09/22 12:57:25;;;;;;;2.67;0.80;;;;;;;20.27;35.87;99557.13;5191462;28;20119;-68
2022/09/22 13:00:33;;;;;;;1.88;0.70;;;;;;;20.26;36.85;99557.31;5187765;28;20056;-69
2022/09/22 13:03:23;;;;;;;22.48;3.00;;;;;;;20.20;36.44;99564.31;5177950;28;20057;-69
2022/09/22 13:06:22;;;;;;;4.50;1.00;;;;;;;20.53;36.12;99563.78;5188813;28;20093;-69
2022/09/22 13:09:24;;;;;;;1.98;0.90;;;;;;;20.64;33.04;99553.31;5188234;28;20049;-69
2022/09/22 13:12:16;;;;;;;0.75;0.73;;;;;;;20.28;36.23;99555.25;5187500;28;20232;-70
2022/09/22 13:15:06;;;;;;;3.28;0.88;;;;;;;19.82;35.01;99547.53;5187161;28;20562;-68
2022/09/22 13:17:57;;;;;;;0.98;0.68;;;;;;;20.21;35.54;99554.38;5188170;28;20364;-69
2022/09/22 13:20:48;;;;;;;3.85;0.90;;;;;;;20.23;35.48;99546.91;5196253;28;20060;-68
2022/09/22 13:23:50;;;;;;;1.55;0.77;;;;;;;20.41;35.97;99540.06;5190690;28;20143;-68
2022/09/22 13:26:40;;;;;;;1.77;0.90;;;;;;;20.09;36.90;99535.19;5191655;28;20097;-69
2022/09/22 13:29:31;;;;;;;2.35;0.70;;;;;;;20.11;36.60;99528.59;5191951;28;20045;-68
2022/09/22 13:32:25;;;;;;;1.98;0.98;;;;;;;20.46;35.71;99542.16;5198422;28;20291;-68
2022/09/22 13:35:45;;;;;;;0.90;0.70;;;;;;;20.46;34.50;99535.94;5186408;28;20045;-68
2022/09/22 13:38:39;;;;;;;1.17;0.70;;;;;;;20.11;36.70;99533.16;5191498;28;20488;-68
2022/09/22 13:41:39;;;;;;;1.05;0.55;;;;;;;20.08;36.76;99528.97;5184029;28;20529;-69
2022/09/22 13:44:33;;;;;;;1.00;0.90;;;;;;;19.89;35.62;99530.44;5194164;28;20175;-68
2022/09/22 13:47:26;;;;;;;1.13;0.60;;;;;;;20.05;35.29;99529.34;5184549;28;20153;-68
2022/09/22 13:50:20;;;;;;;2.97;1.02;;;;;;;20.06;35.33;99522.94;5191137;28;20087;-68
2022/09/22 13:53:17;;;;;;;1.50;0.70;;;;;;;20.46;35.05;99520.59;5196113;28;20463;-68
2022/09/22 13:56:14;;;;;;;1.48;0.80;;;;;;;20.00;36.64;99521.03;5197154;28;20127;-68
2022/09/22 13:59:12;;;;;;;1.92;0.68;;;;;;;19.83;35.52;99519.59;5193508;28;20061;-69
2022/09/22 14:02:09;;;;;;;0.80;0.60;;;;;;;19.85;35.92;99512.19;5196367;28;20136;-68
2022/09/22 14:05:06;;;;;;;2.33;0.90;;;;;;;20.01;34.94;99514.63;5203727;28;20517;-68
2022/09/22 14:08:00;;;;;;;2.50;0.90;;;;;;;19.62;35.62;99491.63;5203224;28;20060;-68